Time;durP1;ratioP1;P1;durP2;ratioP2;P2;SDS_P1;SDS_P2;PMS_P1;PMS_P2;Temp;Humidity;BMP_temperature;BMP_pressure;BME280_temperature;BME280_humidity;BME280_pressure;Samples;Min_cycle;Max_cycle;Signal;HPM_P1;HPM_P2
2023/05/09 00:01:17;;;;;;;14.20;13.13;;;17.50;99.90;;;;;;5118072;28;20205;-87
2023/05/09 00:03:43;;;;;;;13.52;12.48;;;17.40;99.90;;;;;;5119034;28;20202;-88
2023/05/09 00:06:10;;;;;;;12.65;11.55;;;17.40;99.90;;;;;;5119648;28;20644;-87
2023/05/09 00:08:36;;;;;;;13.65;12.35;;;17.40;99.90;;;;;;5108811;28;20189;-87
2023/05/09 00:11:02;;;;;;;12.25;11.13;;;17.40;99.90;;;;;;5100608;28;20254;-87
2023/05/09 00:13:28;;;;;;;11.98;11.05;;;17.50;99.90;;;;;;5100768;28;20239;-87
2023/05/09 00:15:56;;;;;;;12.98;11.88;;;17.50;99.90;;;;;;5098591;28;20219;-88
2023/05/09 00:18:22;;;;;;;11.73;10.82;;;17.40;99.90;;;;;;5111444;28;20234;-87
2023/05/09 00:20:48;;;;;;;13.07;12.07;;;17.40;99.90;;;;;;5117426;28;20167;-89
2023/05/09 00:23:15;;;;;;;12.38;11.45;;;17.50;99.90;;;;;;5116846;28;20496;-88
2023/05/09 00:25:41;;;;;;;14.40;13.13;;;17.40;99.90;;;;;;5116420;28;20171;-86
2023/05/09 00:28:07;;;;;;;13.02;12.02;;;17.40;99.90;;;;;;5104842;28;20183;-87
2023/05/09 00:30:33;;;;;;;13.30;12.20;;;17.40;99.90;;;;;;5096530;28;20178;-87
2023/05/09 00:32:58;;;;;;;13.38;12.35;;;17.30;99.90;;;;;;5096543;28;20183;-88
2023/05/09 00:35:24;;;;;;;12.88;11.77;;;17.30;99.90;;;;;;5097628;28;20182;-88
2023/05/09 00:37:50;;;;;;;12.57;11.68;;;17.30;99.90;;;;;;5104902;28;20180;-87
2023/05/09 00:40:15;;;;;;;13.38;12.13;;;17.30;99.90;;;;;;5118002;28;20183;-86
2023/05/09 00:42:41;;;;;;;13.68;12.70;;;17.30;99.90;;;;;;5118640;28;20201;-88
2023/05/09 00:45:08;;;;;;;14.10;13.10;;;17.30;99.90;;;;;;5105254;28;20207;-88
2023/05/09 00:47:34;;;;;;;13.10;12.20;;;17.30;99.90;;;;;;5098089;28;20447;-87
2023/05/09 00:50:01;;;;;;;13.90;12.88;;;17.30;99.90;;;;;;5098882;28;20167;-87
2023/05/09 00:52:27;;;;;;;15.00;13.80;;;17.30;99.90;;;;;;5101970;28;20206;-87
2023/05/09 00:54:54;;;;;;;13.48;12.45;;;17.30;99.90;;;;;;5101982;28;20210;-87
2023/05/09 00:57:20;;;;;;;14.07;12.95;;;17.20;99.90;;;;;;5104658;28;20174;-88
2023/05/09 00:59:46;;;;;;;13.88;12.88;;;17.10;99.90;;;;;;5103308;27;20221;-86
2023/05/09 01:02:12;;;;;;;15.32;14.23;;;17.20;99.90;;;;;;5102845;28;20229;-86
2023/05/09 01:04:39;;;;;;;14.02;13.02;;;17.30;99.90;;;;;;5102819;28;20218;-87
2023/05/09 01:07:48;;;;;;;14.68;13.68;;;17.30;99.90;;;;;;5110126;28;20621;-87
2023/05/09 01:10:37;;;;;;;14.38;13.35;;;17.20;99.90;;;;;;5111037;28;20198;-87
2023/05/09 01:13:13;;;;;;;14.80;13.60;;;17.20;99.90;;;;;;5126889;28;20191;-87
2023/05/09 01:15:45;;;;;;;15.18;14.02;;;17.20;99.90;;;;;;5125144;28;20190;-88
2023/05/09 01:18:23;;;;;;;14.52;13.43;;;17.30;99.90;;;;;;5125201;28;20163;-87
2023/05/09 01:21:02;;;;;;;13.68;12.73;;;17.20;99.90;;;;;;5110780;28;20254;-86
2023/05/09 01:23:37;;;;;;;15.45;14.27;;;17.30;99.90;;;;;;5103716;28;20199;-87
2023/05/09 01:26:03;;;;;;;14.77;13.57;;;17.30;99.90;;;;;;5105548;28;20269;-88
2023/05/09 01:29:00;;;;;;;14.60;13.40;;;17.30;99.90;;;;;;5105472;28;20217;-87
2023/05/09 01:31:27;;;;;;;14.55;13.50;;;17.30;99.90;;;;;;5103537;28;20179;-86
2023/05/09 01:33:57;;;;;;;14.68;13.45;;;17.10;99.90;;;;;;5104464;28;20262;-87
2023/05/09 01:36:28;;;;;;;15.55;14.27;;;17.10;99.90;;;;;;5105188;28;20187;-88
2023/05/09 01:38:55;;;;;;;14.57;13.38;;;17.00;99.90;;;;;;5103896;28;20158;-87
2023/05/09 01:41:23;;;;;;;15.40;14.25;;;17.00;99.90;;;;;;5102598;28;20182;-86
2023/05/09 01:43:50;;;;;;;15.23;14.07;;;16.90;99.90;;;;;;5102901;28;20255;-86
2023/05/09 01:46:18;;;;;;;15.80;14.68;;;16.90;99.90;;;;;;5102419;28;20231;-87
2023/05/09 01:48:44;;;;;;;17.17;15.65;;;17.00;99.90;;;;;;5102535;28;20187;-87
2023/05/09 01:51:12;;;;;;;16.60;15.40;;;17.00;99.90;;;;;;5102174;28;20166;-87
2023/05/09 01:53:39;;;;;;;16.85;15.45;;;17.10;99.90;;;;;;5101909;28;20248;-89
2023/05/09 01:56:08;;;;;;;17.45;16.15;;;17.10;99.90;;;;;;5120962;28;20182;-88
2023/05/09 01:58:35;;;;;;;14.25;13.02;;;17.10;99.90;;;;;;5121789;28;20169;-88
2023/05/09 02:01:02;;;;;;;14.65;13.45;;;17.00;99.90;;;;;;5113954;28;20174;-86
2023/05/09 02:03:28;;;;;;;13.75;12.75;;;17.00;99.90;;;;;;5114343;28;20227;-88
2023/05/09 02:05:55;;;;;;;14.07;13.07;;;16.90;99.90;;;;;;5121249;28;20193;-88
2023/05/09 02:08:21;;;;;;;14.70;13.63;;;16.90;99.90;;;;;;5121361;28;20561;-89
2023/05/09 02:10:48;;;;;;;16.70;15.40;;;16.90;99.90;;;;;;5124280;28;20185;-87
2023/05/09 02:13:15;;;;;;;16.95;15.45;;;16.90;99.90;;;;;;5121921;28;20246;-88
2023/05/09 02:15:42;;;;;;;14.82;13.63;;;16.90;99.90;;;;;;5104258;27;20213;-88
2023/05/09 02:18:07;;;;;;;15.48;14.02;;;17.00;99.90;;;;;;5102434;28;20573;-87
2023/05/09 02:20:34;;;;;;;14.15;13.05;;;17.00;99.90;;;;;;5111251;28;20679;-87
2023/05/09 02:23:00;;;;;;;14.95;13.75;;;17.00;99.90;;;;;;5119808;28;20220;-86
2023/05/09 02:25:26;;;;;;;14.68;13.38;;;17.00;99.90;;;;;;5103527;28;20179;-88
2023/05/09 02:27:55;;;;;;;14.95;13.80;;;16.90;99.90;;;;;;5099127;28;20185;-89
2023/05/09 02:30:26;;;;;;;14.23;13.13;;;16.90;99.90;;;;;;5099681;28;20179;-86
2023/05/09 02:32:59;;;;;;;15.75;14.35;;;16.80;99.90;;;;;;5099542;28;20572;-87
2023/05/09 02:35:27;;;;;;;16.13;14.63;;;16.80;99.90;;;;;;5100908;28;20204;-87
2023/05/09 02:37:53;;;;;;;15.35;14.10;;;16.90;99.90;;;;;;5100314;28;20179;-87
2023/05/09 02:40:20;;;;;;;14.27;13.18;;;16.90;99.90;;;;;;5100599;28;20185;-86
2023/05/09 02:42:46;;;;;;;14.65;13.55;;;16.90;99.90;;;;;;5100279;28;20468;-88
2023/05/09 02:45:12;;;;;;;13.85;12.65;;;16.60;99.90;;;;;;5112357;28;20243;-86
2023/05/09 02:47:38;;;;;;;15.50;14.30;;;16.60;99.90;;;;;;5119709;28;20632;-87
2023/05/09 02:50:05;;;;;;;14.95;13.85;;;16.60;99.90;;;;;;5121166;28;20185;-88
2023/05/09 02:52:30;;;;;;;14.98;13.85;;;16.60;99.90;;;;;;5121043;28;20210;-87
2023/05/09 02:54:56;;;;;;;14.38;13.27;;;16.60;99.90;;;;;;5111913;28;20186;-87
2023/05/09 02:57:22;;;;;;;16.08;14.85;;;16.60;99.90;;;;;;5108603;28;20174;-87
2023/05/09 02:59:47;;;;;;;15.23;14.05;;;16.60;99.90;;;;;;5104985;28;20185;-87
2023/05/09 03:02:13;;;;;;;14.85;13.75;;;16.60;99.90;;;;;;5100657;28;20272;-88
2023/05/09 03:04:39;;;;;;;16.70;15.30;;;16.60;99.90;;;;;;5097291;28;20206;-86
2023/05/09 03:07:05;;;;;;;16.52;15.05;;;16.70;99.90;;;;;;5098428;28;20175;-86
2023/05/09 03:09:31;;;;;;;15.50;14.30;;;16.70;99.90;;;;;;5099114;28;20749;-87
2023/05/09 03:11:56;;;;;;;16.02;14.57;;;16.80;99.90;;;;;;5097626;28;20214;-87
2023/05/09 03:14:22;;;;;;;16.02;14.82;;;16.80;99.90;;;;;;5102263;28;20678;-88
2023/05/09 03:16:47;;;;;;;16.65;15.27;;;16.90;99.90;;;;;;5119970;28;20182;-88
2023/05/09 03:19:13;;;;;;;16.60;15.07;;;16.90;99.90;;;;;;5118338;28;20177;-87
2023/05/09 03:21:39;;;;;;;17.73;16.13;;;16.80;99.90;;;;;;5098268;28;20193;-87
2023/05/09 03:24:06;;;;;;;20.05;18.45;;;16.80;99.90;;;;;;5099974;28;20210;-88
2023/05/09 03:26:34;;;;;;;18.67;17.13;;;16.80;99.90;;;;;;5098532;28;20177;-87
2023/05/09 03:29:00;;;;;;;19.90;18.20;;;16.70;99.90;;;;;;5097682;28;20740;-86
2023/05/09 03:31:26;;;;;;;17.83;16.15;;;16.70;99.90;;;;;;5100327;28;20217;-87
2023/05/09 03:33:52;;;;;;;21.20;19.45;;;16.70;99.90;;;;;;5100666;28;20224;-87
2023/05/09 03:36:18;;;;;;;21.70;19.90;;;16.80;99.90;;;;;;5120981;28;20190;-87
2023/05/09 03:38:43;;;;;;;19.60;17.90;;;16.70;99.90;;;;;;5119024;28;20197;-88
2023/05/09 03:41:09;;;;;;;19.45;17.80;;;16.60;99.90;;;;;;5117150;28;20194;-86
2023/05/09 03:43:35;;;;;;;20.17;18.45;;;16.70;99.90;;;;;;5118431;28;20889;-88
2023/05/09 03:46:00;;;;;;;20.75;18.95;;;16.80;99.90;;;;;;5101050;28;20190;-87
2023/05/09 03:48:26;;;;;;;21.00;19.20;;;16.90;99.90;;;;;;5096795;28;20732;-87
2023/05/09 03:50:52;;;;;;;20.63;18.83;;;16.80;99.90;;;;;;5099851;28;20536;-88
2023/05/09 03:53:17;;;;;;;22.92;20.88;;;16.80;99.90;;;;;;5106260;28;20230;-87
2023/05/09 03:55:43;;;;;;;20.65;18.90;;;16.70;99.90;;;;;;5100716;28;20181;-86
2023/05/09 03:58:08;;;;;;;19.95;18.17;;;16.70;99.90;;;;;;5099519;28;20179;-87
2023/05/09 04:00:34;;;;;;;20.10;18.30;;;16.80;99.90;;;;;;5108662;28;20197;-87
2023/05/09 04:03:00;;;;;;;22.60;20.33;;;16.80;99.90;;;;;;5105288;28;20199;-87
2023/05/09 04:05:26;;;;;;;22.45;20.50;;;16.80;99.90;;;;;;5095634;28;20505;-87
2023/05/09 04:07:51;;;;;;;22.25;20.48;;;16.80;99.90;;;;;;5096225;28;20189;-87
2023/05/09 04:10:17;;;;;;;24.55;22.17;;;16.90;99.90;;;;;;5096645;28;20259;-86
2023/05/09 04:12:43;;;;;;;24.02;21.83;;;16.80;99.90;;;;;;5096528;28;20202;-88
2023/05/09 04:15:09;;;;;;;22.95;20.95;;;16.80;99.90;;;;;;5109215;28;20187;-87
2023/05/09 04:17:35;;;;;;;22.77;20.75;;;16.80;99.90;;;;;;5108202;28;20174;-87
2023/05/09 04:20:02;;;;;;;23.08;21.08;;;16.80;99.90;;;;;;5102659;28;20178;-87
2023/05/09 04:22:28;;;;;;;25.35;23.02;;;16.80;99.90;;;;;;5114149;28;20202;-87
2023/05/09 04:24:53;;;;;;;23.92;21.83;;;16.80;99.90;;;;;;5103134;28;20327;-87
2023/05/09 04:27:19;;;;;;;24.35;22.15;;;16.70;99.90;;;;;;5102071;28;20181;-88
2023/05/09 04:29:45;;;;;;;25.52;23.13;;;16.80;99.90;;;;;;5102220;28;20186;-87
2023/05/09 04:32:11;;;;;;;25.95;23.63;;;16.80;99.90;;;;;;5099559;28;20208;-87
2023/05/09 04:34:36;;;;;;;27.15;23.63;;;16.80;99.90;;;;;;5101787;28;20206;-88
2023/05/09 04:37:02;;;;;;;28.38;25.58;;;16.70;99.90;;;;;;5101952;28;20194;-87
2023/05/09 04:39:29;;;;;;;27.02;24.45;;;16.80;99.90;;;;;;5101541;28;20175;-86
2023/05/09 04:41:54;;;;;;;26.88;24.40;;;16.80;99.90;;;;;;5112483;28;20234;-86
2023/05/09 04:44:21;;;;;;;29.58;26.38;;;16.90;99.90;;;;;;5116148;28;20354;-88
2023/05/09 04:46:47;;;;;;;29.13;26.30;;;16.90;99.90;;;;;;5102898;28;20177;-87
2023/05/09 04:49:12;;;;;;;30.65;27.45;;;16.90;99.90;;;;;;5103816;28;20270;-87
2023/05/09 04:51:38;;;;;;;29.15;26.35;;;17.00;99.90;;;;;;5113825;28;20613;-87
2023/05/09 04:54:03;;;;;;;30.42;27.33;;;17.00;99.90;;;;;;5122258;28;20750;-88
2023/05/09 04:56:29;;;;;;;29.08;25.95;;;17.00;99.90;;;;;;5120880;28;20199;-87
2023/05/09 04:58:55;;;;;;;29.60;26.42;;;16.90;99.90;;;;;;5116463;28;20186;-87
2023/05/09 05:01:20;;;;;;;29.73;26.88;;;16.80;99.90;;;;;;5111024;28;20622;-86
2023/05/09 05:03:46;;;;;;;28.70;25.88;;;16.90;99.90;;;;;;5116350;28;20255;-87
2023/05/09 05:06:12;;;;;;;29.30;26.40;;;16.90;99.90;;;;;;5121608;28;20185;-87
2023/05/09 05:08:37;;;;;;;27.92;24.95;;;16.80;99.90;;;;;;5121501;28;20180;-88
2023/05/09 05:11:03;;;;;;;30.10;27.27;;;16.80;99.90;;;;;;5120328;28;20184;-89
2023/05/09 05:13:29;;;;;;;29.50;26.70;;;16.70;99.90;;;;;;5119160;28;20238;-88
2023/05/09 05:15:55;;;;;;;27.48;24.85;;;16.70;99.90;;;;;;5113168;28;20181;-86
2023/05/09 05:18:21;;;;;;;29.17;26.27;;;16.70;99.90;;;;;;5107479;28;20190;-87
2023/05/09 05:20:46;;;;;;;28.70;25.90;;;16.60;99.90;;;;;;5107771;28;20189;-87
2023/05/09 05:23:12;;;;;;;28.25;25.42;;;16.60;99.90;;;;;;5109654;28;20671;-86
2023/05/09 05:25:38;;;;;;;29.05;26.35;;;16.50;99.90;;;;;;5110800;28;20226;-86
2023/05/09 05:28:03;;;;;;;28.02;25.50;;;16.60;99.90;;;;;;5111502;28;20173;-86
2023/05/09 05:30:29;;;;;;;26.48;24.02;;;16.70;99.90;;;;;;5112025;28;20191;-90
2023/05/09 05:32:55;;;;;;;28.77;26.10;;;16.70;99.90;;;;;;5113321;28;20209;-86
2023/05/09 05:35:22;;;;;;;27.65;25.05;;;16.70;99.90;;;;;;5108456;28;20189;-87
2023/05/09 05:37:47;;;;;;;28.58;25.88;;;16.80;99.90;;;;;;5107653;28;20552;-87
2023/05/09 05:40:13;;;;;;;26.50;24.00;;;16.90;99.90;;;;;;5114640;28;20193;-85
2023/05/09 05:42:39;;;;;;;25.95;23.55;;;16.90;99.90;;;;;;5112209;28;20219;-86
2023/05/09 05:45:05;;;;;;;26.90;24.23;;;16.90;99.90;;;;;;5104918;28;20579;-89
2023/05/09 05:47:32;;;;;;;25.42;22.98;;;16.90;99.90;;;;;;5107603;28;20174;-88
2023/05/09 05:49:59;;;;;;;25.15;22.95;;;17.00;99.90;;;;;;5100113;28;20182;-92
2023/05/09 05:52:25;;;;;;;24.42;21.80;;;17.10;99.90;;;;;;5100995;28;20790;-87
2023/05/09 05:54:52;;;;;;;22.65;20.48;;;17.20;99.90;;;;;;5117780;28;20189;-89
2023/05/09 05:57:18;;;;;;;24.38;22.17;;;17.20;99.90;;;;;;5120764;28;20181;-89
2023/05/09 05:59:46;;;;;;;24.83;22.58;;;17.30;99.90;;;;;;5118291;28;20184;-89
2023/05/09 06:02:12;;;;;;;25.23;23.02;;;17.20;99.90;;;;;;5119194;28;20243;-89
2023/05/09 06:04:37;;;;;;;28.92;26.15;;;17.20;99.90;;;;;;5118133;28;20210;-90
2023/05/09 06:07:04;;;;;;;31.02;27.98;;;17.20;99.90;;;;;;5120284;28;20185;-85
2023/05/09 06:09:30;;;;;;;30.83;28.05;;;17.10;99.90;;;;;;5116184;28;20207;-85
2023/05/09 06:11:55;;;;;;;30.73;27.73;;;17.10;99.90;;;;;;5101727;28;20183;-87
2023/05/09 06:14:21;;;;;;;31.13;28.30;;;17.10;99.90;;;;;;5114279;28;20194;-86
2023/05/09 06:16:47;;;;;;;32.53;29.55;;;17.20;99.90;;;;;;5111891;28;20186;-87
2023/05/09 06:19:12;;;;;;;33.47;30.08;;;17.20;99.90;;;;;;5111000;28;20199;-86
2023/05/09 06:21:38;;;;;;;30.95;28.23;;;17.20;99.90;;;;;;5116638;28;20182;-86
2023/05/09 06:24:04;;;;;;;34.83;31.60;;;17.20;99.90;;;;;;5112530;28;20214;-87
2023/05/09 06:26:29;;;;;;;33.72;30.75;;;17.20;99.90;;;;;;5109810;28;20182;-87
2023/05/09 06:28:55;;;;;;;33.05;30.10;;;17.30;99.90;;;;;;5109737;28;20170;-86
2023/05/09 06:31:21;;;;;;;31.33;28.52;;;17.20;99.90;;;;;;5111579;28;20182;-86
2023/05/09 06:33:47;;;;;;;31.38;28.55;;;17.30;99.90;;;;;;5110434;28;20222;-86
2023/05/09 06:36:12;;;;;;;32.85;29.77;;;17.50;99.90;;;;;;5110440;28;20194;-87
2023/05/09 06:38:38;;;;;;;30.50;27.55;;;17.70;99.90;;;;;;5100799;28;20193;-87
2023/05/09 06:41:04;;;;;;;32.95;30.05;;;17.60;99.90;;;;;;5108879;28;20242;-87
2023/05/09 06:43:30;;;;;;;30.52;28.02;;;17.60;99.90;;;;;;5103679;28;21085;-88
2023/05/09 06:45:55;;;;;;;31.23;28.52;;;17.50;99.90;;;;;;5101507;28;20242;-86
2023/05/09 06:48:22;;;;;;;30.42;27.75;;;17.50;99.90;;;;;;5102521;28;20174;-86
2023/05/09 06:50:48;;;;;;;30.65;27.88;;;17.70;99.90;;;;;;5098144;28;20740;-88
2023/05/09 06:53:14;;;;;;;26.48;24.08;;;17.90;99.90;;;;;;5101791;28;20242;-88
2023/05/09 06:55:40;;;;;;;24.02;22.02;;;18.00;99.90;;;;;;5102821;28;20173;-85
2023/05/09 06:58:06;;;;;;;26.65;24.40;;;18.10;99.90;;;;;;5105753;28;20271;-86
2023/05/09 07:00:32;;;;;;;24.23;22.23;;;18.00;99.90;;;;;;5096639;28;20674;-88
2023/05/09 07:02:58;;;;;;;24.45;22.45;;;18.10;99.90;;;;;;5101380;28;20234;-87
2023/05/09 07:05:23;;;;;;;23.60;21.63;;;18.20;99.90;;;;;;5098097;28;20228;-87
2023/05/09 07:07:49;;;;;;;23.30;21.30;;;18.20;99.90;;;;;;5100305;28;20729;-87
2023/05/09 07:10:15;;;;;;;22.38;20.52;;;18.10;99.90;;;;;;5099183;28;20174;-87
2023/05/09 07:12:40;;;;;;;20.23;18.60;;;18.10;99.90;;;;;;5104131;28;20278;-86
2023/05/09 07:15:07;;;;;;;21.85;20.08;;;18.20;99.90;;;;;;5103382;28;20190;-92
2023/05/09 07:17:33;;;;;;;20.52;18.85;;;18.40;99.90;;;;;;5097029;28;20294;-87
2023/05/09 07:19:58;;;;;;;19.88;18.30;;;18.40;99.90;;;;;;5108659;28;20210;-88
2023/05/09 07:22:24;;;;;;;19.05;17.52;;;18.60;99.90;;;;;;5103556;28;20309;-89
2023/05/09 07:24:49;;;;;;;19.70;18.10;;;18.60;99.90;;;;;;5110014;28;20210;-90
2023/05/09 07:27:15;;;;;;;18.20;16.80;;;18.80;99.90;;;;;;5100638;28;20171;-86
2023/05/09 07:29:41;;;;;;;19.65;17.95;;;19.00;99.60;;;;;;5099915;28;20299;-88
2023/05/09 07:32:06;;;;;;;17.50;16.10;;;19.10;97.70;;;;;;5106563;28;20178;-88
2023/05/09 07:34:32;;;;;;;16.58;15.38;;;19.00;99.70;;;;;;5108057;28;20178;-91
2023/05/09 07:36:59;;;;;;;16.77;15.27;;;19.20;95.10;;;;;;5104043;28;20898;-88
2023/05/09 07:39:24;;;;;;;16.95;15.65;;;19.20;96.90;;;;;;5097405;28;20175;-90
2023/05/09 07:41:50;;;;;;;16.65;15.32;;;19.20;95.20;;;;;;5099202;28;20194;-88
2023/05/09 07:44:16;;;;;;;17.70;16.33;;;19.40;96.90;;;;;;5101075;28;20217;-89
2023/05/09 07:46:41;;;;;;;18.60;17.00;;;19.10;96.40;;;;;;5106051;28;20278;-88
2023/05/09 07:49:07;;;;;;;16.92;15.63;;;19.10;97.50;;;;;;5100168;28;20188;-89
2023/05/09 07:51:33;;;;;;;13.80;12.70;;;19.10;96.50;;;;;;5101199;28;20179;-88
2023/05/09 07:53:58;;;;;;;15.80;14.60;;;19.20;94.40;;;;;;5102674;28;20209;-87
2023/05/09 07:56:25;;;;;;;15.13;13.82;;;19.40;93.20;;;;;;5099526;28;20175;-89
2023/05/09 07:58:50;;;;;;;14.48;13.18;;;19.20;93.40;;;;;;5100986;28;20217;-88
2023/05/09 08:01:16;;;;;;;15.48;14.13;;;18.90;93.80;;;;;;5099962;28;20197;-87
2023/05/09 08:03:42;;;;;;;13.98;12.98;;;19.20;93.80;;;;;;5098397;28;20240;-87
2023/05/09 08:06:08;;;;;;;15.68;14.15;;;19.50;92.20;;;;;;5120119;28;20278;-88
2023/05/09 08:08:34;;;;;;;17.50;16.10;;;19.60;90.90;;;;;;5119963;28;20172;-85
2023/05/09 08:10:59;;;;;;;17.10;15.90;;;19.60;92.40;;;;;;5113482;28;20236;-84
2023/05/09 08:13:25;;;;;;;16.08;14.88;;;19.60;92.10;;;;;;5121201;28;20205;-85
2023/05/09 08:15:51;;;;;;;17.38;15.88;;;19.70;91.10;;;;;;5109954;28;20212;-87
2023/05/09 08:18:16;;;;;;;16.67;15.38;;;19.80;90.10;;;;;;5113751;28;20209;-86
2023/05/09 08:20:42;;;;;;;15.18;13.88;;;19.90;90.80;;;;;;5106876;28;20194;-85
2023/05/09 08:23:08;;;;;;;16.67;15.18;;;20.00;89.80;;;;;;5120450;28;20210;-85
2023/05/09 08:25:34;;;;;;;16.45;14.98;;;20.10;89.40;;;;;;5110670;28;20214;-81
2023/05/09 08:27:59;;;;;;;14.73;13.60;;;20.00;89.40;;;;;;5113857;28;20302;-84
2023/05/09 08:30:25;;;;;;;15.63;14.40;;;19.70;90.50;;;;;;5100924;28;20263;-83
2023/05/09 08:32:52;;;;;;;14.25;13.25;;;19.60;92.50;;;;;;5102926;28;20186;-83
2023/05/09 08:35:18;;;;;;;15.20;13.95;;;19.70;91.80;;;;;;5109880;28;20212;-85
2023/05/09 08:37:46;;;;;;;13.75;12.48;;;19.80;90.30;;;;;;5103876;28;20441;-88
2023/05/09 08:40:12;;;;;;;14.55;13.55;;;19.80;91.10;;;;;;5108297;28;20182;-87
2023/05/09 08:42:39;;;;;;;16.85;15.38;;;19.90;91.00;;;;;;5108256;28;20255;-87
2023/05/09 08:45:13;;;;;;;16.17;15.07;;;19.80;93.10;;;;;;5105368;28;20208;-90
2023/05/09 08:47:41;;;;;;;16.92;15.52;;;19.90;93.00;;;;;;5109143;28;20205;-86
2023/05/09 08:50:08;;;;;;;15.18;13.60;;;19.90;92.10;;;;;;5118467;28;20257;-90
2023/05/09 08:52:35;;;;;;;13.73;12.70;;;20.00;91.20;;;;;;5099472;28;20241;-87
2023/05/09 08:55:03;;;;;;;14.25;13.15;;;20.20;89.10;;;;;;5110447;28;20179;-89
2023/05/09 08:57:32;;;;;;;15.93;14.70;;;20.30;85.70;;;;;;5098239;28;20183;-88
2023/05/09 08:59:58;;;;;;;14.88;13.68;;;20.20;88.30;;;;;;5097675;28;20171;-89
2023/05/09 09:02:24;;;;;;;15.18;14.00;;;20.00;90.60;;;;;;5097654;28;20225;-86
2023/05/09 09:04:50;;;;;;;15.05;13.82;;;20.10;90.50;;;;;;5104143;28;20231;-87
2023/05/09 09:07:17;;;;;;;15.45;14.20;;;20.10;91.20;;;;;;5101738;28;20229;-85
2023/05/09 09:09:47;;;;;;;15.68;14.40;;;20.30;89.70;;;;;;5102097;28;20166;-84
2023/05/09 09:12:15;;;;;;;14.50;13.40;;;20.30;90.10;;;;;;5107260;28;20229;-88
2023/05/09 09:14:45;;;;;;;15.48;14.18;;;20.30;91.50;;;;;;5119234;28;20237;-85
2023/05/09 09:17:14;;;;;;;16.30;14.95;;;20.30;89.80;;;;;;5116210;28;20265;-87
2023/05/09 09:19:43;;;;;;;15.48;14.05;;;20.30;88.80;;;;;;5118327;28;20174;-85
2023/05/09 09:22:13;;;;;;;15.73;14.43;;;20.10;89.50;;;;;;5127454;28;20191;-89
2023/05/09 09:24:39;;;;;;;15.52;14.18;;;20.00;93.80;;;;;;5122820;28;20656;-84
2023/05/09 09:27:05;;;;;;;16.00;14.73;;;20.00;91.90;;;;;;5117744;28;20173;-87
2023/05/09 09:29:32;;;;;;;15.88;14.63;;;20.20;91.70;;;;;;5109156;28;20593;-85
2023/05/09 09:32:01;;;;;;;14.20;13.05;;;20.30;90.90;;;;;;5113393;28;20171;-87
2023/05/09 09:34:27;;;;;;;15.07;13.88;;;20.70;90.10;;;;;;5108322;28;20178;-86
2023/05/09 09:36:53;;;;;;;14.80;13.70;;;20.60;85.10;;;;;;5115569;28;20170;-87
2023/05/09 09:39:20;;;;;;;13.23;12.23;;;20.90;83.30;;;;;;5110444;28;20178;-88
2023/05/09 09:41:46;;;;;;;12.77;11.75;;;21.10;81.60;;;;;;5109625;28;20203;-87
2023/05/09 09:44:17;;;;;;;11.43;10.63;;;21.30;78.50;;;;;;5111728;28;20198;-89
2023/05/09 09:46:53;;;;;;;11.25;10.45;;;21.40;79.20;;;;;;5109945;28;20178;-88
2023/05/09 09:49:23;;;;;;;10.95;10.05;;;21.40;77.80;;;;;;5113206;28;20188;-86
2023/05/09 09:51:58;;;;;;;11.50;10.35;;;21.50;77.70;;;;;;5119593;28;20211;-88
2023/05/09 09:54:27;;;;;;;11.75;10.95;;;21.60;77.60;;;;;;5124337;28;20203;-88
2023/05/09 09:56:55;;;;;;;11.40;10.40;;;21.50;78.10;;;;;;5121366;28;20179;-88
2023/05/09 09:59:23;;;;;;;11.48;10.60;;;21.40;78.60;;;;;;5114318;28;20190;-90
2023/05/09 10:01:54;;;;;;;10.75;9.95;;;21.40;78.90;;;;;;5113476;28;20754;-91
2023/05/09 10:04:20;;;;;;;12.50;11.27;;;21.30;80.40;;;;;;5115337;28;20249;-89
2023/05/09 10:06:57;;;;;;;12.55;11.55;;;21.00;82.80;;;;;;5116704;28;20174;-90
2023/05/09 10:09:24;;;;;;;10.82;10.00;;;20.90;84.00;;;;;;5105244;28;20190;-85
2023/05/09 10:11:52;;;;;;;14.13;10.38;;;20.90;82.70;;;;;;5104141;28;20178;-87
2023/05/09 10:14:25;;;;;;;12.25;11.25;;;21.00;82.80;;;;;;5104884;28;20205;-87
2023/05/09 10:16:57;;;;;;;11.43;10.52;;;20.70;82.80;;;;;;5096922;28;20213;-86
2023/05/09 10:19:26;;;;;;;12.43;11.32;;;20.60;84.80;;;;;;5098159;28;20179;-87
2023/05/09 10:21:55;;;;;;;11.20;10.32;;;20.70;83.60;;;;;;5108564;27;20174;-87
2023/05/09 10:24:42;;;;;;;12.02;11.02;;;20.80;83.00;;;;;;5108732;28;20203;-89
2023/05/09 10:27:11;;;;;;;10.82;9.93;;;20.90;84.70;;;;;;5104821;28;20186;-88
2023/05/09 10:29:50;;;;;;;11.18;10.48;;;21.00;86.30;;;;;;5105249;28;20230;-86
2023/05/09 10:32:56;;;;;;;10.98;10.18;;;21.00;86.20;;;;;;5106391;28;20221;-85
2023/05/09 10:35:30;;;;;;;11.23;10.43;;;21.00;87.10;;;;;;5084727;28;20517;-89
2023/05/09 10:37:56;;;;;;;10.60;9.80;;;20.80;87.70;;;;;;5097943;28;20170;-87
2023/05/09 10:40:22;;;;;;;10.93;10.13;;;20.80;89.30;;;;;;5095428;28;20174;-90
2023/05/09 10:42:48;;;;;;;10.68;9.85;;;21.00;88.70;;;;;;5092695;28;20195;-89
2023/05/09 10:45:14;;;;;;;11.88;10.98;;;21.00;88.10;;;;;;5098063;28;20203;-86
2023/05/09 10:47:42;;;;;;;11.95;11.07;;;21.20;88.20;;;;;;5095749;28;20187;-89
2023/05/09 10:50:10;;;;;;;12.43;11.43;;;21.10;88.50;;;;;;5096608;28;20186;-87
2023/05/09 10:53:07;;;;;;;12.38;11.48;;;21.20;91.40;;;;;;5108751;28;20610;-87
2023/05/09 10:55:37;;;;;;;12.38;11.45;;;21.10;90.10;;;;;;5116347;28;20600;-87
2023/05/09 10:58:26;;;;;;;12.27;11.38;;;21.20;85.20;;;;;;5100199;28;20201;-87
2023/05/09 11:00:55;;;;;;;12.63;11.63;;;21.60;86.40;;;;;;5096690;28;20167;-89
2023/05/09 11:03:21;;;;;;;13.38;12.27;;;21.70;86.80;;;;;;5107128;28;20212;-86
2023/05/09 11:05:49;;;;;;;12.02;11.23;;;21.60;84.70;;;;;;5116579;28;20527;-88
2023/05/09 11:08:30;;;;;;;12.25;11.35;;;21.50;86.10;;;;;;5115561;28;20175;-86
2023/05/09 11:10:59;;;;;;;12.73;11.73;;;21.70;84.20;;;;;;5100868;28;20175;-86
2023/05/09 11:13:30;;;;;;;11.07;10.25;;;21.50;83.40;;;;;;5099598;28;20213;-87
2023/05/09 11:15:58;;;;;;;9.05;8.38;;;21.30;84.70;;;;;;5117122;28;20173;-87
2023/05/09 11:18:24;;;;;;;8.27;7.68;;;21.50;83.40;;;;;;5109866;28;20206;-87
2023/05/09 11:20:50;;;;;;;7.82;7.32;;;21.40;79.10;;;;;;5104600;28;20599;-89
2023/05/09 11:23:18;;;;;;;7.57;6.95;;;21.30;82.50;;;;;;5106944;28;20220;-86
2023/05/09 11:25:48;;;;;;;6.30;5.90;;;21.30;84.60;;;;;;5105798;28;20292;-82
2023/05/09 11:28:37;;;;;;;7.45;6.78;;;21.20;81.70;;;;;;5101515;28;20734;-85
2023/05/09 11:31:11;;;;;;;5.38;4.97;;;21.30;83.30;;;;;;5095991;28;20170;-87
2023/05/09 11:33:38;;;;;;;6.25;5.85;;;21.30;78.80;;;;;;5096605;28;20274;-84
2023/05/09 11:36:26;;;;;;;6.03;5.72;;;21.50;80.00;;;;;;5097016;28;20194;-86
2023/05/09 11:39:06;;;;;;;6.25;5.75;;;21.40;80.20;;;;;;5119557;28;20174;-85
2023/05/09 11:41:48;;;;;;;17.42;8.65;;;21.60;78.80;;;;;;5119711;28;20185;-85
2023/05/09 11:44:18;;;;;;;5.80;5.40;;;21.80;77.40;;;;;;5109952;28;20230;-85
2023/05/09 11:46:45;;;;;;;6.03;5.55;;;21.60;76.80;;;;;;5099403;28;20182;-85
2023/05/09 11:49:11;;;;;;;6.40;6.00;;;21.50;78.20;;;;;;5095928;28;20204;-89
2023/05/09 11:51:37;;;;;;;6.25;5.75;;;21.50;78.30;;;;;;5114485;28;20186;-88
2023/05/09 11:54:06;;;;;;;6.88;6.38;;;21.50;78.90;;;;;;5098811;28;20191;-90
2023/05/09 11:56:38;;;;;;;7.45;6.85;;;21.50;78.40;;;;;;5113543;28;20633;-87
2023/05/09 11:59:05;;;;;;;6.82;6.32;;;21.30;78.40;;;;;;5117410;28;20190;-89
2023/05/09 12:01:31;;;;;;;6.97;6.50;;;21.20;78.30;;;;;;5119387;28;20205;-88
2023/05/09 12:03:57;;;;;;;6.95;6.30;;;21.30;79.30;;;;;;5117770;28;20224;-87
2023/05/09 12:06:28;;;;;;;7.20;6.60;;;21.20;79.30;;;;;;5102649;28;20171;-85
2023/05/09 12:08:55;;;;;;;6.18;5.68;;;20.80;81.90;;;;;;5107048;28;20167;-88
2023/05/09 12:11:22;;;;;;;7.20;6.47;;;20.70;83.20;;;;;;5104758;28;20220;-84
2023/05/09 12:13:51;;;;;;;5.88;5.47;;;20.80;82.20;;;;;;5105499;28;20205;-88
2023/05/09 12:16:17;;;;;;;9.02;6.68;;;20.60;80.50;;;;;;5105349;28;20555;-87
2023/05/09 12:18:52;;;;;;;6.13;5.72;;;20.70;83.10;;;;;;5102851;28;20206;-87
2023/05/09 12:21:19;;;;;;;6.53;6.00;;;20.60;82.60;;;;;;5102803;28;20221;-85
2023/05/09 12:23:47;;;;;;;6.38;5.88;;;20.60;83.90;;;;;;5104431;28;20238;-89
2023/05/09 12:26:13;;;;;;;5.93;5.47;;;20.60;82.80;;;;;;5107632;28;20245;-85
2023/05/09 12:28:40;;;;;;;6.25;5.85;;;20.60;83.60;;;;;;5105063;28;20677;-86
2023/05/09 12:31:06;;;;;;;6.88;6.20;;;20.60;82.90;;;;;;5100179;28;20641;-87